Miquon, Pennsylvania
Current Conditions -  °F | °C
As of 1:15 AM on Sunday 26 Oct 2014 (Local Time) from KLOM Reporting Station
Broken Clouds Broken Clouds  
Wind Chill: 63°   Ceiling: 8000
Heat Index: 63°   Visibility: 10mi
Dew Point: 45°   Wind: 5mph
Humidity: 52%   Direction: 260°W
Pressure: 29.6"   Gusts: NA
Location:  40.06°N, 75.27°W
Report Text: KLOM 260515Z AUTO 26004KT 10SM BKN080 17/07 A2960 RMK AO1
Loading
Personal Weather Stations






























Interactive Weather Map
Tropical Storm Tracking
New forecast layout! Learn more

10-Day Weather Forecast

Advertisements
Track Severe Weather on mobile